Bottle Creek, Nevada
Current Conditions -  °F | °C
As of 6:56 AM on Monday 22 Dec 2014 (Local Time) from KWMC Reporting Station
Overcast Overcast  
Wind Chill: 44°   Ceiling: 4800
Heat Index: 49°   Visibility: 10mi
Dew Point: 38°   Wind: 12mph
Humidity: 66%   Direction: 240°WSW
Pressure: 30.18"   Gusts: NA
Location:  41.1353°N, 118.186°W
Report Text: KWMC 221456Z AUTO 24010KT 10SM OVC048 09/03 A3018 RMK AO2 SLP203 T00940033 51008
Loading
Personal Weather Stations






























Interactive Weather Map New forecast layout! Learn more

10-Day Weather Forecast

Advertisements
Track Severe Weather on mobile